createdAt,value
2022-11-28T00:01:18.252Z,56.90
2022-11-28T00:03:45.098Z,57.50
2022-11-28T00:06:11.953Z,56.80
2022-11-28T00:08:38.620Z,56.80
2022-11-28T00:11:05.805Z,56.80
2022-11-28T00:13:32.616Z,56.80
2022-11-28T00:15:59.648Z,56.70
2022-11-28T00:18:26.404Z,56.70
2022-11-28T00:20:53.018Z,56.70
2022-11-28T00:23:19.639Z,56.60
2022-11-28T00:25:46.287Z,56.60
2022-11-28T00:28:12.938Z,56.60
2022-11-28T00:30:41.570Z,56.70
2022-11-28T00:33:10.309Z,56.70
2022-11-28T00:35:36.987Z,56.60
2022-11-28T00:38:03.605Z,56.60
2022-11-28T00:40:30.245Z,56.60
2022-11-28T00:42:56.867Z,56.70
2022-11-28T00:45:23.538Z,56.60
2022-11-28T00:47:50.274Z,56.70
2022-11-28T00:50:17.164Z,56.60
2022-11-28T00:52:43.816Z,56.60
2022-11-28T00:55:10.571Z,56.70
2022-11-28T00:57:37.216Z,56.60
2022-11-28T01:00:04.689Z,56.60
2022-11-28T01:02:31.443Z,56.60
2022-11-28T01:04:58.155Z,56.50
2022-11-28T01:07:24.818Z,56.50
2022-11-28T01:09:51.548Z,56.50
2022-11-28T01:12:18.195Z,56.50
2022-11-28T01:14:44.873Z,56.60
2022-11-28T01:17:11.561Z,56.50
2022-11-28T01:19:38.319Z,56.40
2022-11-28T01:22:06.492Z,56.50
2022-11-28T01:24:33.529Z,56.60
2022-11-28T01:27:00.149Z,56.40
2022-11-28T01:29:26.839Z,56.50
2022-11-28T01:31:53.510Z,56.50
2022-11-28T01:34:20.293Z,56.40
2022-11-28T01:36:46.947Z,56.30
2022-11-28T01:39:15.784Z,56.50
2022-11-28T01:41:42.426Z,56.30
2022-11-28T01:44:09.165Z,56.30
2022-11-28T01:46:36.008Z,56.20
2022-11-28T01:49:13.362Z,56.30
2022-11-28T01:51:40.764Z,56.20
2022-11-28T01:54:07.439Z,56.30
2022-11-28T01:56:42.620Z,56.30
2022-11-28T01:59:09.521Z,56.30
2022-11-28T02:01:36.172Z,56.30
2022-11-28T02:04:02.812Z,56.30
2022-11-28T02:06:29.478Z,56.40
2022-11-28T02:08:56.157Z,56.30
2022-11-28T02:11:25.923Z,56.30
2022-11-28T02:14:10.965Z,56.30
2022-11-28T02:17:00.246Z,56.30
2022-11-28T02:19:26.900Z,56.30
2022-11-28T02:21:55.075Z,56.20
2022-11-28T02:24:21.732Z,56.20
2022-11-28T02:26:54.518Z,56.20
2022-11-28T02:29:24.205Z,56.20
2022-11-28T02:32:06.165Z,56.20
2022-11-28T02:34:32.810Z,56.10
2022-11-28T02:37:09.334Z,56.30
2022-11-28T02:39:46.077Z,56.10
2022-11-28T02:42:18.148Z,56.20
2022-11-28T02:44:47.345Z,56.10
2022-11-28T02:47:14.087Z,56.10
2022-11-28T02:49:45.631Z,56.20
2022-11-28T02:52:13.337Z,56.10
2022-11-28T02:54:40.240Z,56.30
2022-11-28T02:57:07.064Z,56.10
2022-11-28T02:59:36.801Z,56.10
2022-11-28T03:02:15.055Z,56.20
2022-11-28T03:04:41.966Z,56.00
2022-11-28T03:07:21.020Z,56.10
2022-11-28T03:09:53.521Z,56.00
2022-11-28T03:12:20.571Z,56.10
2022-11-28T03:14:50.867Z,56.00
2022-11-28T03:17:20.581Z,56.10
2022-11-28T03:19:54.812Z,56.10
2022-11-28T03:22:33.826Z,56.00
2022-11-28T03:25:03.557Z,56.10
2022-11-28T03:27:32.197Z,56.10
2022-11-28T03:30:01.114Z,56.10
2022-11-28T03:32:28.780Z,56.10
2022-11-28T03:35:05.668Z,56.10
2022-11-28T03:37:51.236Z,56.10
2022-11-28T03:40:20.515Z,56.00
2022-11-28T03:42:48.496Z,56.60
2022-11-28T03:45:16.459Z,55.90
2022-11-28T03:47:47.255Z,55.90
2022-11-28T03:50:26.246Z,55.90
2022-11-28T03:52:59.022Z,55.80
2022-11-28T03:55:27.771Z,55.90
2022-11-28T03:57:57.247Z,55.80
2022-11-28T04:00:25.125Z,55.90
2022-11-28T04:02:57.348Z,55.80
2022-11-28T04:05:42.439Z,55.80
2022-11-28T04:08:09.080Z,55.90
2022-11-28T04:11:02.178Z,55.90
2022-11-28T04:13:42.591Z,55.90
2022-11-28T04:16:12.377Z,55.80
2022-11-28T04:18:42.185Z,55.90
2022-11-28T04:21:20.222Z,55.90
2022-11-28T04:23:46.860Z,55.80
2022-11-28T04:26:14.237Z,55.90
2022-11-28T04:28:40.970Z,55.80
2022-11-28T04:31:07.840Z,55.80
2022-11-28T04:33:35.818Z,55.70
2022-11-28T04:36:02.461Z,55.80
2022-11-28T04:38:29.092Z,55.80
2022-11-28T04:40:55.729Z,55.80
2022-11-28T04:43:27.036Z,55.80
2022-11-28T04:45:58.703Z,55.80
2022-11-28T04:48:28.643Z,55.80
2022-11-28T04:51:16.684Z,55.80
2022-11-28T04:54:12.771Z,55.90
2022-11-28T04:56:46.756Z,55.80
2022-11-28T04:59:13.545Z,55.80
2022-11-28T05:01:40.665Z,55.90
2022-11-28T05:04:07.493Z,55.80
2022-11-28T05:06:36.865Z,55.80
2022-11-28T05:09:03.767Z,55.70
2022-11-28T05:11:30.463Z,55.80
2022-11-28T05:13:57.227Z,55.80
2022-11-28T05:16:23.967Z,55.80
2022-11-28T05:18:50.732Z,55.90
2022-11-28T05:21:17.349Z,55.90
2022-11-28T05:23:47.130Z,55.80
2022-11-28T05:26:14.945Z,55.80
2022-11-28T05:28:45.374Z,56.00
2022-11-28T05:31:12.115Z,55.90
2022-11-28T05:33:38.970Z,56.00
2022-11-28T05:36:11.246Z,56.00
2022-11-28T05:38:39.399Z,56.10
2022-11-28T05:41:06.016Z,56.10
2022-11-28T05:43:32.705Z,56.20
2022-11-28T05:45:59.431Z,56.20
2022-11-28T05:48:26.163Z,56.10
2022-11-28T05:50:52.966Z,56.20
2022-11-28T05:53:19.995Z,56.10
2022-11-28T05:55:46.671Z,56.20
2022-11-28T05:58:13.372Z,56.10
2022-11-28T06:00:40.069Z,56.20
2022-11-28T06:03:07.117Z,56.20
2022-11-28T06:05:43.264Z,55.60
2022-11-28T06:08:11.094Z,55.30
2022-11-28T06:10:37.726Z,55.70
2022-11-28T06:13:10.542Z,55.90
2022-11-28T06:15:38.478Z,56.20
2022-11-28T06:18:05.565Z,56.20
2022-11-28T06:20:32.259Z,56.20
2022-11-28T06:22:59.099Z,56.20
2022-11-28T06:25:25.797Z,56.20
2022-11-28T06:27:52.463Z,56.10
2022-11-28T06:30:19.160Z,56.10
2022-11-28T06:32:45.801Z,56.00
2022-11-28T06:35:12.458Z,56.10
2022-11-28T06:37:39.134Z,56.00
2022-11-28T06:40:06.113Z,56.00
2022-11-28T06:42:34.427Z,56.00
2022-11-28T06:45:01.069Z,56.00
2022-11-28T06:47:27.990Z,56.00
2022-11-28T06:49:54.719Z,56.00
2022-11-28T06:52:21.348Z,56.00
2022-11-28T06:54:48.097Z,55.90
2022-11-28T06:57:14.794Z,55.90
2022-11-28T06:59:41.810Z,56.00
2022-11-28T07:02:09.867Z,55.90
2022-11-28T07:04:36.627Z,55.80
2022-11-28T07:07:03.324Z,55.80
2022-11-28T07:09:30.067Z,55.80
2022-11-28T07:11:56.713Z,55.80
2022-11-28T07:14:24.054Z,55.80
2022-11-28T07:16:50.823Z,55.80
2022-11-28T07:19:22.771Z,55.70
2022-11-28T07:21:50.230Z,55.80
2022-11-28T07:24:17.862Z,55.80
2022-11-28T07:26:44.834Z,55.70
2022-11-28T07:29:14.982Z,55.90
2022-11-28T07:31:41.706Z,55.70
2022-11-28T07:34:08.853Z,55.80
2022-11-28T07:36:35.490Z,55.80
2022-11-28T07:39:02.666Z,55.80
2022-11-28T07:41:29.454Z,55.90
2022-11-28T07:43:57.002Z,55.70
2022-11-28T07:46:23.873Z,55.80
2022-11-28T07:48:50.632Z,55.80
2022-11-28T07:51:18.318Z,55.70
2022-11-28T07:53:44.999Z,55.70
2022-11-28T07:56:14.983Z,55.70
2022-11-28T07:58:42.284Z,55.70
2022-11-28T08:01:13.116Z,55.70
2022-11-28T08:03:39.779Z,55.70
2022-11-28T08:06:06.662Z,55.70
2022-11-28T08:08:33.562Z,55.70
2022-11-28T08:11:01.409Z,55.70
2022-11-28T08:13:28.070Z,55.60
2022-11-28T08:15:54.722Z,55.60
2022-11-28T08:18:21.417Z,55.60
2022-11-28T08:20:48.060Z,55.50
2022-11-28T08:23:14.716Z,55.50
2022-11-28T08:25:41.408Z,55.50
2022-11-28T08:28:08.125Z,55.40
2022-11-28T08:30:34.949Z,55.50
2022-11-28T08:33:01.671Z,55.40
2022-11-28T08:35:28.360Z,55.40
2022-11-28T08:37:58.974Z,55.40
2022-11-28T08:40:28.844Z,55.40
2022-11-28T08:42:55.850Z,55.50
2022-11-28T08:45:22.605Z,55.30
2022-11-28T08:47:49.461Z,55.40
2022-11-28T08:50:16.214Z,55.30
2022-11-28T08:52:42.858Z,55.40
2022-11-28T08:55:12.658Z,55.40
2022-11-28T08:57:39.281Z,55.40
2022-11-28T09:00:06.320Z,55.40
2022-11-28T09:02:33.025Z,55.30
2022-11-28T09:04:59.595Z,55.30
2022-11-28T09:07:33.288Z,55.30
2022-11-28T09:10:02.571Z,55.40
2022-11-28T09:12:33.141Z,55.30
2022-11-28T09:14:59.890Z,55.30
2022-11-28T09:17:26.496Z,55.20
2022-11-28T09:19:53.460Z,55.20
2022-11-28T09:22:23.173Z,55.20
2022-11-28T09:24:49.939Z,55.20
2022-11-28T09:27:18.625Z,55.10
2022-11-28T09:29:45.586Z,55.10
2022-11-28T09:32:13.822Z,55.10
2022-11-28T09:34:40.466Z,55.10
2022-11-28T09:37:07.096Z,55.10
2022-11-28T09:39:57.143Z,55.10
2022-11-28T09:42:23.842Z,55.10
2022-11-28T09:44:52.876Z,55.10
2022-11-28T09:47:24.818Z,55.10
2022-11-28T09:50:02.137Z,55.10
2022-11-28T09:52:31.721Z,55.10
2022-11-28T09:55:06.511Z,55.10
2022-11-28T09:57:40.418Z,55.10
2022-11-28T10:00:11.490Z,55.10
2022-11-28T10:02:45.505Z,55.10
2022-11-28T10:05:15.085Z,55.10
2022-11-28T10:07:55.388Z,55.10
2022-11-28T10:10:22.185Z,55.10
2022-11-28T10:13:03.896Z,55.10
2022-11-28T10:15:42.366Z,55.10
2022-11-28T10:18:12.057Z,55.10
2022-11-28T10:20:43.149Z,55.10
2022-11-28T10:23:18.648Z,55.10
2022-11-28T10:25:59.519Z,55.10
2022-11-28T10:28:26.794Z,55.10
2022-11-28T10:31:05.186Z,55.10
2022-11-28T10:33:33.865Z,55.00
2022-11-28T10:36:00.880Z,54.90
2022-11-28T10:38:28.012Z,54.90
2022-11-28T10:41:00.958Z,54.90
2022-11-28T10:43:33.463Z,54.90
2022-11-28T10:46:05.380Z,55.00
2022-11-28T10:48:41.289Z,55.00
2022-11-28T10:51:17.004Z,55.00
2022-11-28T10:54:06.705Z,54.90
2022-11-28T10:56:37.053Z,54.90
2022-11-28T10:59:15.786Z,55.00
2022-11-28T11:01:49.891Z,54.80
2022-11-28T11:04:23.467Z,54.90
2022-11-28T11:07:08.164Z,54.90
2022-11-28T11:09:41.948Z,54.80
2022-11-28T11:12:11.165Z,54.80
2022-11-28T11:14:39.935Z,54.80
2022-11-28T11:17:06.665Z,54.90
2022-11-28T11:19:37.381Z,54.80
2022-11-28T11:22:04.051Z,54.80
2022-11-28T11:24:33.630Z,54.80
2022-11-28T11:27:19.503Z,54.80
2022-11-28T11:29:50.296Z,54.90
2022-11-28T11:32:23.665Z,54.80
2022-11-28T11:34:50.511Z,54.70
2022-11-28T11:37:23.094Z,54.70
2022-11-28T11:39:50.437Z,54.80
2022-11-28T11:42:23.833Z,54.70
2022-11-28T11:44:50.909Z,54.70
2022-11-28T11:47:17.585Z,54.70
2022-11-28T11:49:45.589Z,54.70
2022-11-28T11:52:15.465Z,54.70
2022-11-28T11:54:57.322Z,54.70
2022-11-28T11:57:34.758Z,54.70
2022-11-28T12:00:01.596Z,54.70
2022-11-28T12:02:32.521Z,54.60
2022-11-28T12:05:02.634Z,54.70
2022-11-28T12:07:33.986Z,54.60
2022-11-28T12:10:04.527Z,54.60
2022-11-28T12:12:31.722Z,54.70
2022-11-28T12:14:58.441Z,54.40
2022-11-28T12:20:32.639Z,54.20
2022-11-28T12:23:03.217Z,53.80
2022-11-28T12:25:45.157Z,53.60
2022-11-28T12:28:16.027Z,53.20
2022-11-28T12:30:45.702Z,53.10
2022-11-28T12:33:31.825Z,52.90
2022-11-28T12:36:06.350Z,53.10
2022-11-28T12:38:51.791Z,53.20
2022-11-28T12:41:31.964Z,53.30
2022-11-28T12:43:59.311Z,53.60
2022-11-28T12:46:45.028Z,53.60
2022-11-28T12:49:14.435Z,53.70
2022-11-28T12:51:50.462Z,53.80
2022-11-28T12:54:34.969Z,53.80
2022-11-28T12:57:09.983Z,53.90
2022-11-28T12:59:36.693Z,54.00
2022-11-28T13:02:12.684Z,54.00
2022-11-28T13:04:39.704Z,54.00
2022-11-28T13:07:18.657Z,54.10
2022-11-28T13:09:57.561Z,54.10
2022-11-28T13:12:43.034Z,54.20
2022-11-28T13:15:33.103Z,54.10
2022-11-28T13:18:03.330Z,54.20
2022-11-28T13:20:33.053Z,54.10
2022-11-28T13:22:59.798Z,54.20
2022-11-28T13:25:26.592Z,54.20
2022-11-28T13:27:56.613Z,54.30
2022-11-28T13:30:24.123Z,54.40
2022-11-28T13:33:06.102Z,54.20
2022-11-28T13:35:32.909Z,54.30
2022-11-28T13:41:03.986Z,54.30
2022-11-28T13:43:43.435Z,54.20
2022-11-28T13:46:10.230Z,54.40
2022-11-28T13:51:31.966Z,54.30
2022-11-28T13:54:17.773Z,54.30
2022-11-28T13:56:45.183Z,54.30
2022-11-28T13:59:16.737Z,54.40
2022-11-28T14:01:47.679Z,54.20
2022-11-28T14:04:14.751Z,54.30
2022-11-28T14:06:44.608Z,54.20
2022-11-28T14:09:11.430Z,54.20
2022-11-28T14:11:53.552Z,54.30
2022-11-28T14:14:39.027Z,54.30
2022-11-28T14:17:05.761Z,54.40
2022-11-28T14:19:32.450Z,54.30
2022-11-28T14:22:28.736Z,54.40
2022-11-28T14:24:57.447Z,54.40
2022-11-28T14:27:25.543Z,54.20
2022-11-28T14:29:52.998Z,54.40
2022-11-28T14:32:43.001Z,54.30
2022-11-28T14:35:16.379Z,54.30
2022-11-28T14:37:50.079Z,54.20
2022-11-28T14:40:35.741Z,54.40
2022-11-28T14:43:21.225Z,54.30
2022-11-28T14:45:49.146Z,54.30
2022-11-28T14:48:18.925Z,54.30
2022-11-28T14:50:46.374Z,54.20
2022-11-28T14:53:31.827Z,54.40
2022-11-28T14:56:19.023Z,54.20
2022-11-28T14:58:49.203Z,54.40
2022-11-28T15:01:17.216Z,54.40
2022-11-28T15:03:46.213Z,54.30
2022-11-28T15:06:14.370Z,54.30
2022-11-28T15:08:45.601Z,54.40
2022-11-28T15:11:31.191Z,54.30
2022-11-28T15:14:16.711Z,54.30
2022-11-28T15:16:49.800Z,54.30
2022-11-28T15:19:21.276Z,54.20
2022-11-28T15:21:49.030Z,54.20
2022-11-28T15:24:34.819Z,54.20
2022-11-28T15:27:07.867Z,54.20
2022-11-28T15:29:35.263Z,54.30
2022-11-28T15:32:04.404Z,54.40
2022-11-28T15:34:34.922Z,54.20
2022-11-28T15:37:05.852Z,54.40
2022-11-28T15:39:35.119Z,55.00
2022-11-28T15:42:02.715Z,54.30
2022-11-28T15:44:36.633Z,54.40
2022-11-28T15:47:04.872Z,54.40
2022-11-28T15:49:33.187Z,54.50
2022-11-28T15:52:00.841Z,54.60
2022-11-28T15:54:33.792Z,54.60
2022-11-28T15:57:03.635Z,54.50
2022-11-28T15:59:30.506Z,54.50
2022-11-28T16:01:59.749Z,54.60
2022-11-28T16:04:28.524Z,54.60
2022-11-28T16:06:56.709Z,54.50
2022-11-28T16:09:24.762Z,54.60
2022-11-28T16:11:51.866Z,54.50
2022-11-28T16:14:21.593Z,54.50
2022-11-28T16:16:48.303Z,54.60
2022-11-28T16:19:25.134Z,54.70
2022-11-28T16:22:19.128Z,54.50
2022-11-28T16:24:49.621Z,54.50
2022-11-28T16:27:31.753Z,54.10
2022-11-28T16:29:58.504Z,53.90
2022-11-28T16:32:32.596Z,53.60
2022-11-28T16:35:02.494Z,53.30
2022-11-28T16:37:29.837Z,53.00
2022-11-28T16:40:11.990Z,53.20
2022-11-28T16:42:38.809Z,53.30
2022-11-28T16:45:08.617Z,53.30
2022-11-28T16:47:42.345Z,53.60
2022-11-28T16:50:14.094Z,53.90
2022-11-28T16:52:43.767Z,54.10
2022-11-28T16:55:28.898Z,54.10
2022-11-28T16:58:07.420Z,54.20
2022-11-28T17:00:34.594Z,54.40
2022-11-28T17:03:01.495Z,54.50
2022-11-28T17:05:28.192Z,54.70
2022-11-28T17:07:55.148Z,54.70
2022-11-28T17:10:22.020Z,54.60
2022-11-28T17:12:48.729Z,54.70
2022-11-28T17:15:16.274Z,53.80
2022-11-28T17:17:43.034Z,54.80
2022-11-28T17:20:10.123Z,54.80
2022-11-28T17:22:41.422Z,55.00
2022-11-28T17:25:08.340Z,55.00
2022-11-28T17:27:35.073Z,55.50
2022-11-28T17:30:01.962Z,55.00
2022-11-28T17:32:28.707Z,55.20
2022-11-28T17:34:55.441Z,54.90
2022-11-28T17:37:22.227Z,54.90
2022-11-28T17:40:07.550Z,54.90
2022-11-28T17:42:34.450Z,54.90
2022-11-28T17:45:01.221Z,54.90
2022-11-28T17:47:29.092Z,54.90
2022-11-28T17:49:55.862Z,55.00
2022-11-28T17:52:27.855Z,54.90
2022-11-28T17:54:58.934Z,55.00
2022-11-28T17:57:29.165Z,55.60
2022-11-28T17:59:58.266Z,55.00
2022-11-28T18:02:25.183Z,55.10
2022-11-28T18:04:52.029Z,55.00
2022-11-28T18:07:18.890Z,55.00
2022-11-28T18:09:45.955Z,55.10
2022-11-28T18:12:12.973Z,55.00
2022-11-28T18:14:40.146Z,55.10
2022-11-28T18:17:07.431Z,55.10
2022-11-28T18:19:34.376Z,55.10
2022-11-28T18:22:01.162Z,55.20
2022-11-28T18:24:27.897Z,55.10
2022-11-28T18:26:54.871Z,55.10
2022-11-28T18:29:21.761Z,55.20
2022-11-28T18:31:50.727Z,55.10
2022-11-28T18:34:17.536Z,55.20
2022-11-28T18:36:44.342Z,55.20
2022-11-28T18:39:15.423Z,55.20
2022-11-28T18:41:42.707Z,55.20
2022-11-28T18:44:10.059Z,55.30
2022-11-28T18:46:36.852Z,55.20
2022-11-28T18:49:05.173Z,55.20
2022-11-28T18:51:32.637Z,55.30
2022-11-28T18:53:59.480Z,55.20
2022-11-28T18:56:30.026Z,55.30
2022-11-28T18:58:59.523Z,55.20
2022-11-28T19:01:28.731Z,55.20
2022-11-28T19:04:16.781Z,55.20
2022-11-28T19:06:44.091Z,55.30
2022-11-28T19:09:14.325Z,55.30
2022-11-28T19:11:41.168Z,55.40
2022-11-28T19:14:08.106Z,55.30
2022-11-28T19:16:35.751Z,55.40
2022-11-28T19:19:02.644Z,55.50
2022-11-28T19:21:31.019Z,55.40
2022-11-28T19:23:57.826Z,55.60
2022-11-28T19:26:25.221Z,55.50
2022-11-28T19:28:52.019Z,55.60
2022-11-28T19:31:27.284Z,55.50
2022-11-28T19:34:00.479Z,55.60
2022-11-28T19:36:39.365Z,55.60
2022-11-28T19:39:07.011Z,55.60
2022-11-28T19:41:33.715Z,55.60
2022-11-28T19:44:00.469Z,55.60
2022-11-28T19:46:35.064Z,55.60
2022-11-28T19:49:02.602Z,55.50
2022-11-28T19:51:29.297Z,55.50
2022-11-28T19:54:01.369Z,55.50
2022-11-28T19:56:29.901Z,55.40
2022-11-28T19:58:57.346Z,55.50
2022-11-28T20:01:24.662Z,55.40
2022-11-28T20:03:51.743Z,55.40
2022-11-28T20:06:18.545Z,55.40
2022-11-28T20:08:45.468Z,55.30
2022-11-28T20:11:15.421Z,55.30
2022-11-28T20:13:42.683Z,55.20
2022-11-28T20:16:10.459Z,55.80
2022-11-28T20:18:38.754Z,55.20
2022-11-28T20:21:06.745Z,55.20
2022-11-28T20:23:33.544Z,55.20
2022-11-28T20:26:04.157Z,55.10
2022-11-28T20:28:31.964Z,55.10
2022-11-28T20:30:58.701Z,55.00
2022-11-28T20:33:25.411Z,55.50
2022-11-28T20:35:56.996Z,54.90
2022-11-28T20:38:26.985Z,54.80
2022-11-28T20:40:58.976Z,54.90
2022-11-28T20:43:25.944Z,54.80
2022-11-28T20:45:52.951Z,54.80
2022-11-28T20:48:19.751Z,54.80
2022-11-28T20:50:46.537Z,54.80
2022-11-28T20:53:13.230Z,54.80
2022-11-28T20:55:40.010Z,54.80
2022-11-28T20:58:06.701Z,54.80
2022-11-28T21:00:33.416Z,54.70
2022-11-28T21:03:00.130Z,54.70
2022-11-28T21:05:26.891Z,54.70
2022-11-28T21:07:53.672Z,54.70
2022-11-28T21:10:20.456Z,55.30
2022-11-28T21:12:47.177Z,54.60
2022-11-28T21:15:13.874Z,54.60
2022-11-28T21:17:40.608Z,54.60
2022-11-28T21:20:07.583Z,54.60
2022-11-28T21:22:34.292Z,54.60
2022-11-28T21:25:00.999Z,54.60
2022-11-28T21:27:27.671Z,54.50
2022-11-28T21:29:54.367Z,54.50
2022-11-28T21:32:21.164Z,54.50
2022-11-28T21:34:47.944Z,54.60
2022-11-28T21:37:14.742Z,54.60
2022-11-28T21:39:45.159Z,54.50
2022-11-28T21:42:16.095Z,54.50
2022-11-28T21:44:45.718Z,54.50
2022-11-28T21:47:12.375Z,54.30
2022-11-28T21:49:39.074Z,54.40
2022-11-28T21:52:06.267Z,54.40
2022-11-28T21:54:32.943Z,54.40
2022-11-28T21:57:01.270Z,54.30
2022-11-28T21:59:27.975Z,54.40
2022-11-28T22:01:54.751Z,54.40
2022-11-28T22:04:22.078Z,54.30
2022-11-28T22:06:51.335Z,54.30
2022-11-28T22:09:18.104Z,54.40
2022-11-28T22:11:44.851Z,54.30
2022-11-28T22:14:11.549Z,54.30
2022-11-28T22:16:38.287Z,54.30
2022-11-28T22:19:04.979Z,54.90
2022-11-28T22:24:20.816Z,54.90
2022-11-28T22:26:53.716Z,54.30
2022-11-28T22:29:20.446Z,54.30
2022-11-28T22:31:47.274Z,54.30
2022-11-28T22:34:14.016Z,54.20
2022-11-28T22:36:40.760Z,54.20
2022-11-28T22:39:07.515Z,54.20
2022-11-28T22:41:34.249Z,54.20
2022-11-28T22:44:01.395Z,54.20
2022-11-28T22:46:28.418Z,54.20
2022-11-28T22:48:55.178Z,54.20
2022-11-28T22:51:23.246Z,54.20
2022-11-28T22:53:56.649Z,54.30
2022-11-28T22:56:23.387Z,54.30
2022-11-28T22:58:50.091Z,54.20
2022-11-28T23:01:17.832Z,54.20
2022-11-28T23:03:44.715Z,54.20
2022-11-28T23:06:12.500Z,54.20
2022-11-28T23:08:39.167Z,54.20
2022-11-28T23:11:08.707Z,54.20
2022-11-28T23:13:35.752Z,54.20
2022-11-28T23:16:32.137Z,54.10
2022-11-28T23:18:59.746Z,54.20
2022-11-28T23:21:26.728Z,54.20
2022-11-28T23:23:53.419Z,54.20
2022-11-28T23:26:23.806Z,54.20
2022-11-28T23:28:50.703Z,54.20
2022-11-28T23:31:17.554Z,54.20
2022-11-28T23:33:44.593Z,54.20
2022-11-28T23:36:14.292Z,54.20
2022-11-28T23:38:41.037Z,54.20
2022-11-28T23:41:07.826Z,54.10
2022-11-28T23:43:34.533Z,54.20
2022-11-28T23:46:01.252Z,54.10
2022-11-28T23:48:28.055Z,54.10
2022-11-28T23:50:54.780Z,54.10
2022-11-28T23:53:21.521Z,54.10
2022-11-28T23:55:48.225Z,54.10
2022-11-28T23:58:15.170Z,54.10
